• Join FlightAware (Why Join?)
  • Login
  • US Flag 
04:58AM EDT


 

Airport Tracker/Info


-or-


 

Live Flight TrackerFlight Track Log ✈ AAL2153 ✈ 26-Aug-2013 ✈ KMIA - SPIM / LIM

Flight Track Log - Related Links

Times and Time Zones

All times are in EDT time to prevent confusion due to time zone crossing. See the AAL2153 flight status page for this flight to view local times or setup timezone preferences in your user account.

Time Position Orientation Groundspeed Altitude Reporting Facility
EDT Latitude Longitude Course Direction KTS MPH feet Rate Location/Type
12:07AM 25.7980 -80.3000 90° East 125 144  Level FlightAware
12:08AM 25.7990 -80.2850 86° East 162 186 300 1,860 Climbing FlightAware
12:08AM 25.7980 -80.2640 93° East 165 190 1,400 2,640 Climbing FlightAware
12:08AM 25.7970 -80.2600 106° East 169 194 1,600 2,160 Climbing FlightAware
12:09AM 25.7900 -80.2430 115° Southeast 190 219 2,300 2,100 Climbing FlightAware
12:09AM 25.7820 -80.2240 115° Southeast 215 247 3,000 2,160 Climbing FlightAware
12:09AM 25.7720 -80.1970 112° Southeast 247 284 3,900 2,460 Climbing FlightAware
12:10AM 25.7620 -80.1800 123° Southeast 263 303 4,600 3,000 Climbing FlightAware
12:10AM 25.7540 -80.1700 132° Southeast 268 308 5,200 3,420 Climbing FlightAware
12:10AM 25.7440 -80.1620 144° Southeast 272 313 5,800 3,900 Climbing FlightAware
12:10AM 25.7310 -80.1570 161° South 267 307 6,500 4,080 Climbing FlightAware
12:10AM 25.7190 -80.1570 180° South 275 316 7,100 3,480 Climbing FlightAware
12:11AM 25.6750 -80.1630 187° South 285 328 9,300 3,660 Climbing FlightAware
12:11AM 25.6590 -80.1720 207° Southwest 293 337 10,000 3,360 Climbing FlightAware
12:12AM 25.6190 -80.1960 208° Southwest 315 362 11,600 2,400 Climbing FlightAware
12:12AM 25.5710 -80.2240 208° Southwest 356 410 12,700 2,040 Climbing FlightAware
12:13AM 25.5160 -80.2490 202° Southwest 387 445 14,000 2,340 Climbing FlightAware
12:13AM 25.4560 -80.2800 205° Southwest 409 471 15,500 2,940 Climbing FlightAware
12:14AM 25.4030 -80.3070 205° Southwest 407 468 17,300 2,940 Climbing FlightAware
12:14AM 25.3390 -80.3290 197° South 430 495 18,700 2,880 Climbing FlightAware
12:15AM 25.2630 -80.3510 195° South 425 489 20,900 2,700 Climbing FlightAware
12:16AM 25.2030 -80.3710 197° South 451 519 21,900 2,520 Climbing FlightAware
12:16AM 25.1330 -80.3970 199° South 445 512 23,700 2,400 Climbing FlightAware
12:17AM 25.0620 -80.4230 198° South 461 531 24,700 1,980 Climbing FlightAware
12:17AM 24.9780 -80.4530 198° South 471 542 26,200 2,400 Climbing FlightAware
12:18AM 24.9160 -80.4750 198° South 471 542 27,500 2,280 Climbing FlightAware
12:18AM 24.8400 -80.5000 197° South 487 560 28,700 2,400 Climbing FlightAware
12:19AM 24.7540 -80.5280 196° South 470 541 30,500 3,360 Climbing FlightAware
12:20AM 24.6810 -80.5520 197° South 449 517 32,900 3,540 Climbing FlightAware
12:20AM 24.6250 -80.5700 196° South 433 498 34,400 2,280 Climbing FlightAware
12:21AM 24.5470 -80.5960 197° South 424 488 35,600 1,440 Climbing FlightAware
12:21AM 24.4810 -80.6170 196° South 438 504 36,200 1,020 Climbing FlightAware
12:22AM 24.4160 -80.6380 196° South 440 506 36,800 660 Climbing FlightAware
12:23AM 24.3500 -80.6600 197° South 441 507 37,000 120 Climbing FlightAware
12:23AM 24.2740 -80.6850 197° South 452 520 37,000  Level FlightAware
12:24AM 24.2050 -80.7070 196° South 451 519 37,000  Level FlightAware
12:24AM 24.1340 -80.7300 196° South 451 519 37,000  Level FlightAware
12:25AM 24.0660 -80.7520 196° South 451 519 37,000  Level FlightAware
12:25AM 23.9940 -80.7760 197° South 450 518 37,000  Level FlightAware
12:26AM 23.9230 -80.7990 196° South 449 517 37,000  Level FlightAware
12:27AM 23.8550 -80.8210 196° South 439 505 37,000  Level FlightAware
12:27AM 23.7840 -80.8440 197° South 439 505 37,000  Level FlightAware
12:28AM 23.7140 -80.8660 196° South 438 504 37,000  Level FlightAware
12:28AM 23.6460 -80.8880 197° South 437 503 37,000  Level FlightAware
12:29AM 23.5790 -80.9100 197° South 438 504 37,000  Level FlightAware
12:30AM 23.5130 -80.9310 196° South 439 505 37,000  Level FlightAware
12:30AM 23.4260 -80.9590 196° South 441 507 37,000  Level FlightAware
12:31AM 23.3660 -80.9770 195° South 441 507 37,000  Level FlightAware
12:32AM 23.3060 -80.9960 196° South 441 507 37,000  Level FlightAware
12:32AM 23.2450 -81.0150 196° South 441 507 37,000  Level FlightAware
12:33AM 23.1850 -81.0340 196° South 441 507 37,000  Level FlightAware
12:33AM 23.1250 -81.0530 196° South 441 507 37,000  Level FlightAware
12:34AM 23.0630 -81.0720 196° South 441 507 37,000  Level FlightAware
12:35AM 22.8920 -81.1300 197° South 453 521 37,000  Level FlightAware
12:35AM 22.8310 -81.1490 196° South 453 521 37,000  Level FlightAware
12:36AM 22.7690 -81.1680 196° South 453 521 37,000  Level FlightAware
12:37AM 22.7040 -81.1890 197° South 453 521 37,000  Level FlightAware
12:37AM 22.6420 -81.2080 196° South 453 521 37,000  Level FlightAware
12:38AM 22.5810 -81.2270 196° South 453 521 37,000  Level FlightAware
12:38AM 22.5170 -81.2470 196° South 453 521 37,000  Level FlightAware
12:39AM 22.4560 -81.2660 196° South 453 521 37,000  Level FlightAware
12:40AM 22.3940 -81.2850 196° South 453 521 37,000  Level FlightAware
12:40AM 22.3320 -81.3040 196° South 453 521 37,000  Level FlightAware
12:41AM 22.2710 -81.3230 196° South 453 521 37,000  Level FlightAware
12:41AM 22.2090 -81.3420 196° South 453 521 37,000  Level FlightAware
12:42AM 22.1470 -81.3610 196° South 453 521 37,000  Level FlightAware
12:43AM 22.0860 -81.3800 196° South 453 521 37,000  Level FlightAware
12:43AM 22.0240 -81.3990 196° South 453 521 37,000  Level FlightAware
12:44AM 21.9810 -81.4130 197° South 453 521 37,000  Level FlightAware
12:44AM 21.9200 -81.4320 196° South 453 521 37,000  Level FlightAware
12:47AM 21.6376 -81.3919 172° South  Level Estimated
12:48AM 21.5157 -81.3746 172° South  Level Estimated
12:49AM 21.3939 -81.3573 172° South  Level Estimated
12:50AM 21.2720 -81.3401 173° South  Level Estimated
12:51AM 21.1501 -81.3229 173° South  Level Estimated
12:52AM 21.0282 -81.3058 173° South  Level Estimated
12:53AM 20.9063 -81.2886 173° South  Level Estimated
12:54AM 20.7844 -81.2715 173° South  Level Estimated
12:55AM 20.6625 -81.2544 173° South  Level Estimated
12:56AM 20.5406 -81.2374 173° South  Level Estimated
12:57AM 20.4186 -81.2204 173° South  Level Estimated
12:58AM 20.2967 -81.2034 173° South  Level Estimated
12:59AM 20.1748 -81.1864 173° South  Level Estimated
01:00AM 20.0529 -81.1695 173° South  Level Estimated
01:01AM 19.9310 -81.1525 173° South  Level Estimated
01:02AM 19.8091 -81.1357 173° South  Level Estimated
01:03AM 19.6872 -81.1188 173° South  Level Estimated
01:04AM 19.5653 -81.1019 173° South  Level Estimated
01:05AM 19.4433 -81.0851 173° South  Level Estimated
01:06AM 19.3214 -81.0683 173° South  Level Estimated
01:07AM 19.1995 -81.0516 173° South  Level Estimated
01:08AM 19.0776 -81.0348 173° South  Level Estimated
01:09AM 18.9557 -81.0181 173° South  Level Estimated
01:10AM 18.8337 -81.0014 173° South  Level Estimated
01:11AM 18.7118 -80.9848 173° South  Level Estimated
01:12AM 18.5899 -80.9681 173° South  Level Estimated
01:13AM 18.4679 -80.9515 173° South  Level Estimated
01:14AM 18.3460 -80.9349 173° South  Level Estimated
01:15AM 18.2241 -80.9184 173° South  Level Estimated
01:16AM 18.1021 -80.9018 173° South  Level Estimated
01:17AM 17.9802 -80.8853 173° South  Level Estimated
01:18AM 17.8583 -80.8688 173° South  Level Estimated
01:19AM 17.7363 -80.8523 173° South  Level Estimated
01:20AM 17.6144 -80.8358 173° South  Level Estimated
01:21AM 17.4924 -80.8194 173° South  Level Estimated
01:22AM 17.3705 -80.8030 173° South  Level Estimated
01:23AM 17.2486 -80.7866 173° South  Level Estimated
01:24AM 17.1266 -80.7702 173° South  Level Estimated
01:25AM 17.0047 -80.7539 173° South  Level Estimated
01:26AM 16.8827 -80.7376 173° South  Level Estimated
01:27AM 16.7608 -80.7213 173° South  Level Estimated
01:28AM 16.6388 -80.7050 173° South  Level Estimated
01:29AM 16.5169 -80.6887 173° South  Level Estimated
01:30AM 16.3949 -80.6725 173° South  Level Estimated
01:31AM 16.2730 -80.6562 173° South  Level Estimated
01:32AM 16.1510 -80.6401 173° South  Level Estimated
01:33AM 16.0290 -80.6239 173° South  Level Estimated
01:34AM 15.9071 -80.6077 173° South  Level Estimated
01:35AM 15.7851 -80.5916 173° South  Level Estimated
01:36AM 15.6632 -80.5754 173° South  Level Estimated
01:37AM 15.5412 -80.5593 173° South  Level Estimated
01:38AM 15.4192 -80.5433 173° South  Level Estimated
01:39AM 15.2973 -80.5272 173° South  Level Estimated
01:40AM 15.1753 -80.5111 173° South  Level Estimated
01:41AM 15.0533 -80.4951 173° South  Level Estimated
01:42AM 14.9300 -80.4789 173° South  Level Estimated
01:43AM 14.8067 -80.4628 173° South  Level Estimated
01:44AM 14.6833 -80.4466 173° South  Level Estimated
01:45AM 14.5600 -80.4305 173° South  Level Estimated
01:46AM 14.4367 -80.4144 173° South  Level Estimated
01:47AM 14.3133 -80.3982 173° South  Level Estimated
01:48AM 14.1900 -80.3822 173° South  Level Estimated
01:49AM 14.0667 -80.3661 173° South  Level Estimated
01:50AM 13.9433 -80.3501 173° South  Level Estimated
01:51AM 13.8200 -80.3340 173° South  Level Estimated
01:52AM 13.6966 -80.3180 173° South  Level Estimated
01:53AM 13.5733 -80.3020 173° South  Level Estimated
01:54AM 13.4500 -80.2860 173° South  Level Estimated
01:55AM 13.3266 -80.2701 173° South  Level Estimated
01:56AM 13.2033 -80.2541 173° South  Level Estimated
01:57AM 13.0799 -80.2382 173° South  Level Estimated
01:58AM 12.9566 -80.2223 173° South  Level Estimated
01:59AM 12.8332 -80.2064 173° South  Level Estimated
02:00AM 12.7099 -80.1905 173° South  Level Estimated
02:01AM 12.5865 -80.1746 173° South  Level Estimated
02:01AM 12.3280 -80.2920 173° South 435 501 37,000  Level FlightAware
02:01AM 12.2700 -80.2860 174° South 435 501 37,000  Level FlightAware
02:02AM 12.4632 -80.1588 173° South  Level Estimated
02:02AM 12.1740 -80.2780 175° South 436 502 37,000  Level FlightAware
02:03AM 12.1070 -80.2710 174° South 436 502 37,000  Level FlightAware
02:03AM 12.0210 -80.2640 175° South 437 503 37,000  Level FlightAware
02:04AM 11.9340 -80.2560 175° South 438 504 37,000  Level FlightAware
02:05AM 11.8610 -80.2500 175° South 439 505 37,000  Level FlightAware
02:05AM 11.8040 -80.2440 174° South 439 505 37,000  Level FlightAware
02:06AM 11.7270 -80.2370 175° South 439 505 37,000  Level FlightAware
02:06AM 11.6530 -80.2310 175° South 439 505 37,000  Level FlightAware
02:07AM 11.5720 -80.2230 174° South 439 505 37,000  Level FlightAware
02:07AM 11.5100 -80.2180 175° South 439 505 37,000  Level FlightAware
02:08AM 11.4260 -80.2100 175° South 438 504 37,000  Level FlightAware
02:09AM 11.3650 -80.2050 175° South 438 504 37,000  Level FlightAware
02:09AM 11.2910 -80.1980 175° South 438 504 37,000  Level FlightAware
02:10AM 11.2200 -80.1920 175° South 439 505 37,000  Level FlightAware
02:10AM 11.1370 -80.1840 175° South 439 505 37,000  Level FlightAware
02:11AM 11.0750 -80.1790 175° South 439 505 37,000  Level FlightAware
02:12AM 11.0010 -80.1720 175° South 439 505 37,000  Level FlightAware
02:12AM 10.9410 -80.1670 175° South 439 505 37,000  Level FlightAware
02:13AM 10.8590 -80.1590 175° South 448 516 37,000  Level FlightAware
02:13AM 10.7960 -80.1540 176° South 448 516 37,000  Level FlightAware
02:14AM 10.7210 -80.1470 175° South 449 517 37,000  Level FlightAware
02:14AM 10.6480 -80.1400 175° South 449 517 37,000  Level FlightAware
02:15AM 10.5750 -80.1340 175° South 449 517 37,000  Level FlightAware
02:16AM 10.4920 -80.1260 175° South 450 518 37,000  Level FlightAware
02:16AM 10.4290 -80.1210 176° South 450 518 37,000  Level FlightAware
02:17AM 10.3600 -80.1150 175° South 450 518 37,000  Level FlightAware
02:17AM 10.2720 -80.1070 175° South 451 519 37,000  Level FlightAware
02:18AM 10.1920 -80.1000 175° South 451 519 37,000  Level FlightAware
02:19AM 10.1180 -80.0930 175° South 450 518 37,000  Level FlightAware
02:19AM 10.0430 -80.0870 175° South 450 518 37,000  Level FlightAware
02:20AM 9.9800 -80.0810 175° South 450 518 37,000  Level FlightAware
02:20AM 9.8970 -80.0740 175° South 449 517 37,000  Level FlightAware
02:21AM 9.8240 -80.0680 175° South 449 517 37,000  Level FlightAware
02:21AM 9.7630 -80.0620 174° South 448 516 37,000  Level FlightAware
02:22AM 9.6900 -80.0560 175° South 448 516 37,000  Level FlightAware
02:23AM 9.6260 -80.0500 175° South 439 505 37,000  Level FlightAware
02:23AM 9.5440 -80.0430 175° South 438 504 37,000  Level FlightAware
02:24AM 9.4820 -80.0380 175° South 438 504 37,000  Level FlightAware
02:24AM 9.4080 -80.0310 175° South 437 503 37,000  Level FlightAware
02:25AM 9.3360 -80.0250 175° South 437 503 37,000  Level FlightAware
02:26AM 9.2630 -80.0190 175° South 437 503 37,000  Level FlightAware
02:26AM 9.2010 -80.0130 175° South 437 503 37,000  Level FlightAware
02:27AM 9.1400 -80.0080 175° South 437 503 37,000  Level FlightAware
02:27AM 9.0780 -80.0020 175° South 437 503 37,000  Level FlightAware
02:28AM 9.0160 -79.9970 175° South 437 503 37,000  Level FlightAware
02:29AM 8.9550 -79.9920 175° South 437 503 37,000  Level FlightAware
02:29AM 8.8910 -79.9860 175° South 437 503 37,000  Level FlightAware
02:30AM 8.8300 -79.9800 174° South 437 503 37,000  Level FlightAware
02:30AM 8.7680 -79.9750 175° South 437 503 37,000  Level FlightAware
02:31AM 8.7060 -79.9700 175° South 437 503 37,000  Level FlightAware
02:32AM 8.6450 -79.9640 174° South 437 503 37,000  Level FlightAware
02:32AM 8.5820 -79.9580 175° South 437 503 37,000  Level FlightAware
02:33AM 8.5200 -79.9530 175° South 437 503 37,000  Level FlightAware
02:33AM 8.4570 -79.9470 175° South 437 503 37,000  Level FlightAware
02:34AM 8.3950 -79.9420 175° South 437 503 37,000  Level FlightAware
02:35AM 8.3320 -79.9360 175° South 437 503 37,000  Level FlightAware
02:37AM 8.1083 -79.9047 172° South  Level Estimated
02:38AM 7.9851 -79.8875 172° South  Level Estimated
02:39AM 7.8620 -79.8703 172° South  Level Estimated
02:40AM 7.7389 -79.8531 172° South  Level Estimated
02:41AM 7.6157 -79.8359 172° South  Level Estimated
02:42AM 7.4926 -79.8187 172° South  Level Estimated
02:43AM 7.3694 -79.8016 172° South  Level Estimated
02:44AM 7.2463 -79.7844 172° South  Level Estimated
02:45AM 7.1231 -79.7673 172° South  Level Estimated
02:46AM 7.0000 -79.7502 172° South  Level Estimated
02:47AM 6.8768 -79.7330 172° South  Level Estimated
02:48AM 6.7537 -79.7159 172° South  Level Estimated
02:49AM 6.6305 -79.6988 172° South  Level Estimated
02:50AM 6.5074 -79.6817 172° South  Level Estimated
02:51AM 6.3842 -79.6646 172° South  Level Estimated
02:52AM 6.2611 -79.6476 172° South  Level Estimated
02:53AM 6.1379 -79.6305 172° South  Level Estimated
02:54AM 6.0148 -79.6134 172° South  Level Estimated
02:55AM 5.8916 -79.5964 172° South  Level Estimated
02:56AM 5.7685 -79.5793 172° South  Level Estimated
02:57AM 5.6453 -79.5623 172° South  Level Estimated
02:58AM 5.5221 -79.5452 172° South  Level Estimated
02:59AM 5.3990 -79.5282 172° South  Level Estimated
03:00AM 5.2762 -79.5112 172° South  Level Estimated
03:01AM 5.1535 -79.4943 172° South  Level Estimated
03:02AM 5.0307 -79.4773 172° South  Level Estimated
03:03AM 4.9079 -79.4604 172° South  Level Estimated
03:04AM 4.7852 -79.4434 172° South  Level Estimated
03:05AM 4.6624 -79.4265 172° South  Level Estimated
03:06AM 4.5397 -79.4096 172° South  Level Estimated
03:07AM 4.4169 -79.3926 172° South  Level Estimated
03:08AM 4.2941 -79.3757 172° South  Level Estimated
03:09AM 4.1714 -79.3588 172° South  Level Estimated
03:10AM 4.0486 -79.3419 172° South  Level Estimated
03:11AM 3.9259 -79.3250 172° South  Level Estimated
03:12AM 3.8031 -79.3081 172° South  Level Estimated
03:13AM 3.6803 -79.2912 172° South  Level Estimated
03:14AM 3.5576 -79.2743 172° South  Level Estimated
03:15AM 3.4348 -79.2574 172° South  Level Estimated
03:16AM 3.3120 -79.2405 172° South  Level Estimated
03:17AM 3.1893 -79.2237 172° South  Level Estimated
03:18AM 3.0665 -79.2068 172° South  Level Estimated
03:19AM 2.9437 -79.1899 172° South  Level Estimated
03:20AM 2.8210 -79.1731 172° South  Level Estimated
03:21AM 2.6982 -79.1562 172° South  Level Estimated
03:22AM 2.5754 -79.1394 172° South  Level Estimated
03:23AM 2.4527 -79.1225 172° South  Level Estimated
03:24AM 2.3299 -79.1057 172° South  Level Estimated
03:25AM 2.2071 -79.0888 172° South  Level Estimated
03:26AM 2.0843 -79.0720 172° South  Level Estimated
03:27AM 1.9616 -79.0551 172° South  Level Estimated
03:28AM 1.8388 -79.0383 172° South  Level Estimated
03:29AM 1.7160 -79.0214 172° South  Level Estimated
03:30AM 1.5933 -79.0046 172° South  Level Estimated
03:31AM 1.4705 -78.9878 172° South  Level Estimated
03:32AM 1.3477 -78.9710 172° South  Level Estimated
03:33AM 1.2249 -78.9541 172° South  Level Estimated
03:34AM 1.1022 -78.9373 172° South  Level Estimated
03:35AM 0.9794 -78.9205 172° South  Level Estimated
03:36AM 0.8566 -78.9036 172° South  Level Estimated
03:36AM 0.3110 -79.8470 172° South 461 531 39,000  Level FlightAware
03:37AM 0.7339 -78.8868 172° South  Level Estimated
03:37AM 0.2330 -79.8480 181° South 461 531 39,000  Level FlightAware
03:38AM 0.1480 -79.8490 181° South 461 531 39,000  Level FlightAware
03:38AM 0.0820 -79.8500 181° South 462 532 39,000  Level FlightAware
03:39AM 0.0070 -79.8510 181° South 462 532 39,000  Level FlightAware
03:39AM -0.0660 -79.8510 180° South 463 533 39,000  Level FlightAware
03:40AM -0.1550 -79.8520 181° South 464 534 39,000  Level FlightAware
03:41AM -0.2280 -79.8530 181° South 465 535 39,000  Level FlightAware
03:41AM -0.2930 -79.8540 181° South 466 536 39,000  Level FlightAware
03:42AM -0.3710 -79.8550 181° South 467 537 39,000  Level FlightAware
03:42AM -0.4580 -79.8560 181° South 467 537 39,000  Level FlightAware
03:43AM -0.5210 -79.8560 180° South 467 537 39,000  Level FlightAware
03:43AM -0.5990 -79.8570 181° South 467 537 39,000  Level FlightAware
03:44AM -0.6850 -79.8580 181° South 467 537 39,000  Level FlightAware
03:45AM -0.7500 -79.8590 181° South 466 536 39,000  Level FlightAware
03:45AM -0.8260 -79.8600 181° South 465 535 39,000  Level FlightAware
03:46AM -0.9020 -79.8610 181° South 465 535 39,000  Level FlightAware
03:46AM -0.9750 -79.8620 181° South 465 535 39,000  Level FlightAware
03:47AM -1.0530 -79.8620 180° South 464 534 39,000  Level FlightAware
03:48AM -1.1290 -79.8630 181° South 464 534 39,000  Level FlightAware
03:48AM -1.2150 -79.8640 181° South 464 534 39,000  Level FlightAware
03:49AM -1.2900 -79.8650 181° South 463 533 39,000  Level FlightAware
03:49AM -1.3540 -79.8660 181° South 463 533 39,000  Level FlightAware
03:50AM -1.4410 -79.8670 181° South 463 533 39,000  Level FlightAware
03:50AM -1.5050 -79.8670 180° South 463 533 39,000  Level FlightAware
03:51AM -1.5770 -79.8680 181° South 464 534 39,000  Level FlightAware
03:52AM -1.6650 -79.8690 181° South 464 534 39,000  Level FlightAware
03:52AM -1.7400 -79.8700 181° South 464 534 39,000  Level FlightAware
03:53AM -1.8030 -79.8710 181° South 463 533 39,000  Level FlightAware
03:53AM -1.8780 -79.8710 180° South 464 534 39,000  Level FlightAware
03:54AM -1.9860 -79.8730 181° South 464 534 39,000  Level FlightAware
03:55AM -2.1270 -79.8700 179° South 462 532 39,000  Level FlightAware
03:56AM -2.1940 -79.8620 173° South 461 531 39,000  Level FlightAware
03:56AM -2.2710 -79.8530 173° South 462 532 39,000  Level FlightAware
03:57AM -2.3350 -79.8440 172° South 462 532 39,000  Level FlightAware
03:58AM -2.4140 -79.8340 173° South 462 532 39,000  Level FlightAware
03:58AM -2.5070 -79.8230 173° South 463 533 39,000  Level FlightAware
03:59AM -2.5710 -79.8140 172° South 464 534 39,000  Level FlightAware
03:59AM -2.6470 -79.8050 173° South 464 534 39,000  Level FlightAware
04:00AM -2.7210 -79.7960 173° South 464 534 39,000  Level FlightAware
04:00AM -2.7940 -79.7860 172° South 463 533 39,000  Level FlightAware
04:01AM -2.8690 -79.7770 173° South 463 533 39,000  Level FlightAware
04:02AM -2.9450 -79.7680 173° South 463 533 39,000  Level FlightAware
04:02AM -3.0190 -79.7590 173° South 462 532 39,000  Level FlightAware
04:03AM -3.0920 -79.7490 172° South 462 532 39,000  Level FlightAware
04:03AM -3.1680 -79.7400 173° South 463 533 39,000  Level FlightAware
04:04AM -3.2430 -79.7310 173° South 463 533 39,000  Level FlightAware
04:05AM -3.3160 -79.7210 172° South 464 534 39,000  Level FlightAware
04:05AM -3.3910 -79.7120 173° South 464 534 39,000  Level FlightAware
04:06AM -3.4780 -79.7010 173° South 465 535 39,000  Level FlightAware
04:06AM -3.5400 -79.6940 174° South 465 535 39,000  Level FlightAware
04:07AM -3.6110 -79.6850 173° South 466 536 39,000  Level FlightAware
04:07AM -3.6920 -79.6750 173° South 467 537 39,000  Level FlightAware
04:08AM -3.7890 -79.6630 173° South 467 537 39,000  Level FlightAware
04:09AM -3.8550 -79.6550 173° South 467 537 39,000  Level FlightAware
04:10AM -3.9240 -79.6460 173° South 467 537 39,000  Level FlightAware
04:10AM -3.9900 -79.6380 173° South 467 537 39,000  Level FlightAware
04:11AM -4.0550 -79.6300 173° South 467 537 39,000  Level FlightAware
04:11AM -4.1190 -79.6220 173° South 467 537 39,000  Level FlightAware
04:12AM -4.1850 -79.6140 173° South 467 537 39,000  Level FlightAware
04:13AM -4.2500 -79.6060 173° South 467 537 39,000  Level FlightAware
04:13AM -4.3160 -79.5980 173° South 467 537 39,000  Level FlightAware
04:14AM -4.3780 -79.5900 173° South 467 537 39,000  Level FlightAware
04:14AM -4.4430 -79.5820 173° South 467 537 39,000  Level FlightAware
04:15AM -4.5090 -79.5740 173° South 467 537 39,000  Level FlightAware
04:16AM -4.5750 -79.5660 173° South 467 537 39,000  Level FlightAware
04:16AM -4.6400 -79.5580 173° South 467 537 39,000  Level FlightAware
04:17AM -4.7060 -79.5500 173° South 467 537 39,000  Level FlightAware
04:17AM -4.7720 -79.5420 173° South 467 537 39,000 -480 Level FlightAware
04:20AM -5.0271 -79.4580 162° South  Level Estimated
04:21AM -5.1448 -79.4192 162° South  Level Estimated
04:22AM -5.2626 -79.3804 162° South  Level Estimated
04:23AM -5.3803 -79.3415 162° South  Level Estimated
04:24AM -5.4980 -79.3027 162° South  Level Estimated
04:25AM -5.6157 -79.2638 162° South  Level Estimated
04:26AM -5.7335 -79.2249 162° South  Level Estimated
04:27AM -5.8512 -79.1861 162° South  Level Estimated
04:28AM -5.9689 -79.1471 162° South  Level Estimated
04:29AM -6.0866 -79.1082 162° South  Level Estimated
04:30AM -6.2043 -79.0693 162° South  Level Estimated
04:31AM -6.3220 -79.0303 162° South  Level Estimated
04:32AM -6.4398 -78.9913 162° South  Level Estimated
04:33AM -6.5574 -78.9523 162° South  Level Estimated
04:34AM -6.6751 -78.9133 162° South  Level Estimated
04:35AM -6.7929 -78.8743 162° South  Level Estimated
04:36AM -6.9105 -78.8352 162° South  Level Estimated
04:37AM -7.0282 -78.7962 162° South  Level Estimated
04:38AM -7.1459 -78.7571 162° South  Level Estimated
04:39AM -7.2636 -78.7180 162° South  Level Estimated
04:40AM -7.3813 -78.6788 162° South  Level Estimated
04:41AM -7.4990 -78.6397 162° South  Level Estimated
04:42AM -7.6166 -78.6005 162° South  Level Estimated
04:43AM -7.7343 -78.5613 162° South  Level Estimated
04:44AM -7.8520 -78.5221 162° South  Level Estimated
04:45AM -7.9696 -78.4828 162° South  Level Estimated
04:46AM -8.0873 -78.4436 162° South  Level Estimated
04:47AM -8.2050 -78.4043 162° South  Level Estimated
04:48AM -8.3226 -78.3650 162° South  Level Estimated
04:49AM -8.4403 -78.3257 162° South  Level Estimated
04:50AM -8.5579 -78.2863 162° South  Level Estimated
04:51AM -8.6759 -78.2468 162° South  Level Estimated
04:52AM -8.7939 -78.2073 162° South  Level Estimated
04:53AM -8.9119 -78.1677 162° South  Level Estimated
04:54AM -9.0300 -78.1281 162° South  Level Estimated
04:55AM -9.1480 -78.0885 162° South  Level Estimated
04:56AM -9.2660 -78.0489 162° South  Level Estimated
04:57AM -9.3840 -78.0092 162° South  Level Estimated
04:58AM -9.5019 -77.9695 162° South  Level Estimated
04:59AM -9.6199 -77.9298 162° South  Level Estimated
05:00AM -9.7379 -77.8901 162° South  Level Estimated
05:01AM -9.8559 -77.8503 162° South  Level Estimated
05:02AM -9.9739 -77.8105 162° South  Level Estimated
05:03AM -10.0918 -77.7707 162° South  Level Estimated
05:04AM -10.2098 -77.7308 162° South  Level Estimated
05:05AM -10.3278 -77.6909 162° South  Level Estimated
05:06AM -10.4457 -77.6510 162° South  Level Estimated
05:06AM -11.0620 -77.5790 162° South 350 403 17,600  Level FlightAware
05:07AM -10.5637 -77.6110 162° South  Level Estimated
05:07AM -11.1070 -77.5530 150° Southeast 339 390 16,900  Level FlightAware
05:08AM -11.1630 -77.5280 156° South 330 380 16,600 -1,140 Descending FlightAware
05:08AM -11.2140 -77.5020 153° Southeast 309 356 15,400 -1,620 Descending FlightAware
05:09AM -11.2580 -77.4790 153° Southeast 302 348 14,700 -780 Descending FlightAware
05:10AM -11.3050 -77.4550 153° Southeast 292 336 14,400 -1,380 Descending FlightAware
05:10AM -11.3520 -77.4330 155° Southeast 281 323 13,000 -1,860 Descending FlightAware
05:11AM -11.3950 -77.4140 157° South 274 315 12,200 -1,260 Descending FlightAware
05:11AM -11.4070 -77.4090 158° South 272 313 12,000 -1,260 Descending FlightAware
05:12AM -11.4650 -77.3810 155° Southeast 264 304 10,900 -1,200 Descending FlightAware
05:12AM -11.5030 -77.3620 154° Southeast 262 302 10,400 -1,080 Descending FlightAware
05:13AM -11.5270 -77.3500 154° Southeast 259 298 9,900 -1,440 Descending FlightAware
05:13AM -11.5530 -77.3370 154° Southeast 260 299 9,300 -1,380 Descending FlightAware
05:14AM -11.5750 -77.3260 154° Southeast 260 299 8,900 -1,440 Descending FlightAware
05:14AM -11.5940 -77.3170 155° Southeast 260 299 8,400 -1,200 Descending FlightAware
05:14AM -11.6200 -77.3060 157° South 242 278 8,100 -720 Descending FlightAware
05:15AM -11.6410 -77.2970 157° South 229 264 7,900 -840 Descending FlightAware
05:15AM -11.6560 -77.2900 155° Southeast 226 260 7,600 -1,500 Descending FlightAware
05:15AM -11.6720 -77.2820 154° Southeast 226 260 7,100 -1,620 Descending FlightAware
05:15AM -11.6880 -77.2730 151° Southeast 230 265 6,700 -1,680 Descending FlightAware
05:16AM -11.7080 -77.2610 150° Southeast 233 268 6,000 -1,320 Descending FlightAware
05:16AM -11.7240 -77.2520 151° Southeast 224 258 5,800 -960 Descending FlightAware
05:16AM -11.7490 -77.2390 153° Southeast 214 246 5,300 -1,200 Descending FlightAware
05:17AM -11.7660 -77.2320 158° South 209 241 4,900 -1,260 Descending FlightAware
05:17AM -11.7730 -77.2300 164° South 209 241 4,700 -360 Descending FlightAware
05:17AM -11.7950 -77.2220 160° South 209 241 4,700  Level FlightAware
05:20AM -12.0167 -77.1167 180° South  Level FlightAware Approximate
05:21AM -12.0219 -77.1143 180° South  Level Estimated
05:22AM -12.0167 -77.1167 180° South  Level FlightAware Approximate